Terminal Aerodrome Forecast
Issued by NWS Duluth, MN

Home | Current Version | Previous Version | Text Only | Print | Product List | Glossary On
Versions: 1 2 3 4 5 6 7 8 9 10 11 12 13 14 15 16 17 18 19 20 21 22 23 24 25 26 27
000
FTUS43 KDLH 200300 AAC
TAFINL
TAF AMD
KINL 200337Z 2004/2024 30012KT P6SM OVC012
      TEMPO 2004/2007 4SM -SHRA BR OVC008
     FM201200 30013G20KT P6SM OVC015
     FM201500 30014G22KT P6SM VCSH BKN025=

USA.gov is the U.S. government's official web portal to all federal, state and local government web resources and services.